sensor_id;sensor_type;location;lat;lon;timestamp;P1;durP1;ratioP1;P2;durP2;ratioP2
51066;SDS011;37112;45.892;-123.962;2022-07-05T00:01:02;3.70;;;0.80;;
51066;SDS011;37112;45.892;-123.962;2022-07-05T00:03:35;4.90;;;1.00;;
51066;SDS011;37112;45.892;-123.962;2022-07-05T00:06:09;2.90;;;0.80;;
51066;SDS011;37112;45.892;-123.962;2022-07-05T00:08:42;3.10;;;0.60;;
51066;SDS011;37112;45.892;-123.962;2022-07-05T00:11:16;6.80;;;0.70;;
51066;SDS011;37112;45.892;-123.962;2022-07-05T00:13:49;3.80;;;0.60;;
51066;SDS011;37112;45.892;-123.962;2022-07-05T00:16:22;3.90;;;0.60;;
51066;SDS011;37112;45.892;-123.962;2022-07-05T00:18:55;6.70;;;0.60;;
51066;SDS011;37112;45.892;-123.962;2022-07-05T00:21:29;7.50;;;0.90;;
51066;SDS011;37112;45.892;-123.962;2022-07-05T00:24:01;1.60;;;0.70;;
51066;SDS011;37112;45.892;-123.962;2022-07-05T00:26:35;2.30;;;0.70;;
51066;SDS011;37112;45.892;-123.962;2022-07-05T00:29:09;7.60;;;0.90;;
51066;SDS011;37112;45.892;-123.962;2022-07-05T00:31:42;1.90;;;0.50;;
51066;SDS011;37112;45.892;-123.962;2022-07-05T00:34:15;5.00;;;0.90;;
51066;SDS011;37112;45.892;-123.962;2022-07-05T00:36:48;8.10;;;1.20;;
51066;SDS011;37112;45.892;-123.962;2022-07-05T00:39:22;4.20;;;0.70;;
51066;SDS011;37112;45.892;-123.962;2022-07-05T00:41:48;9.70;;;2.30;;
51066;SDS011;37112;45.892;-123.962;2022-07-05T00:44:29;6.60;;;1.20;;
51066;SDS011;37112;45.892;-123.962;2022-07-05T00:47:04;6.80;;;0.70;;
51066;SDS011;37112;45.892;-123.962;2022-07-05T00:49:39;2.10;;;0.80;;
51066;SDS011;37112;45.892;-123.962;2022-07-05T00:52:12;5.50;;;0.70;;
51066;SDS011;37112;45.892;-123.962;2022-07-05T00:54:47;9.50;;;2.50;;
51066;SDS011;37112;45.892;-123.962;2022-07-05T00:57:21;15.40;;;7.00;;
51066;SDS011;37112;45.892;-123.962;2022-07-05T00:59:57;10.80;;;3.60;;
51066;SDS011;37112;45.892;-123.962;2022-07-05T01:02:31;8.60;;;0.90;;
51066;SDS011;37112;45.892;-123.962;2022-07-05T01:05:03;7.10;;;0.80;;
51066;SDS011;37112;45.892;-123.962;2022-07-05T01:07:37;2.20;;;0.60;;
51066;SDS011;37112;45.892;-123.962;2022-07-05T01:10:10;5.00;;;1.10;;
51066;SDS011;37112;45.892;-123.962;2022-07-05T01:12:44;6.80;;;1.40;;
51066;SDS011;37112;45.892;-123.962;2022-07-05T01:15:11;7.30;;;1.10;;
51066;SDS011;37112;45.892;-123.962;2022-07-05T01:17:39;6.70;;;1.50;;
51066;SDS011;37112;45.892;-123.962;2022-07-05T01:20:12;8.70;;;1.50;;
51066;SDS011;37112;45.892;-123.962;2022-07-05T01:22:52;6.50;;;1.00;;
51066;SDS011;37112;45.892;-123.962;2022-07-05T01:25:28;7.40;;;1.60;;
51066;SDS011;37112;45.892;-123.962;2022-07-05T01:28:02;6.40;;;0.80;;
51066;SDS011;37112;45.892;-123.962;2022-07-05T01:30:38;10.00;;;2.10;;
51066;SDS011;37112;45.892;-123.962;2022-07-05T01:33:12;5.70;;;0.90;;
51066;SDS011;37112;45.892;-123.962;2022-07-05T01:35:45;6.10;;;1.10;;
51066;SDS011;37112;45.892;-123.962;2022-07-05T01:38:19;5.90;;;1.20;;
51066;SDS011;37112;45.892;-123.962;2022-07-05T01:40:53;5.90;;;0.80;;
51066;SDS011;37112;45.892;-123.962;2022-07-05T01:43:26;3.70;;;0.60;;
51066;SDS011;37112;45.892;-123.962;2022-07-05T01:45:59;7.50;;;2.30;;
51066;SDS011;37112;45.892;-123.962;2022-07-05T01:48:37;14.00;;;3.80;;
51066;SDS011;37112;45.892;-123.962;2022-07-05T01:51:13;4.40;;;0.80;;
51066;SDS011;37112;45.892;-123.962;2022-07-05T01:53:52;6.00;;;1.10;;
51066;SDS011;37112;45.892;-123.962;2022-07-05T01:56:26;11.00;;;2.40;;
51066;SDS011;37112;45.892;-123.962;2022-07-05T01:58:59;1.00;;;0.40;;
51066;SDS011;37112;45.892;-123.962;2022-07-05T02:01:34;2.50;;;1.60;;
51066;SDS011;37112;45.892;-123.962;2022-07-05T02:04:09;0.70;;;0.50;;
51066;SDS011;37112;45.892;-123.962;2022-07-05T02:06:42;1.50;;;0.50;;
51066;SDS011;37112;45.892;-123.962;2022-07-05T02:09:16;0.80;;;0.40;;
51066;SDS011;37112;45.892;-123.962;2022-07-05T02:11:49;1.90;;;0.50;;
51066;SDS011;37112;45.892;-123.962;2022-07-05T02:14:22;0.80;;;0.50;;
51066;SDS011;37112;45.892;-123.962;2022-07-05T02:16:56;0.50;;;0.40;;
51066;SDS011;37112;45.892;-123.962;2022-07-05T02:19:33;1.70;;;0.40;;
51066;SDS011;37112;45.892;-123.962;2022-07-05T02:22:08;2.80;;;0.40;;
51066;SDS011;37112;45.892;-123.962;2022-07-05T02:24:41;0.40;;;0.40;;
51066;SDS011;37112;45.892;-123.962;2022-07-05T02:27:14;0.40;;;0.40;;
51066;SDS011;37112;45.892;-123.962;2022-07-05T02:29:28;1.30;;;0.70;;
51066;SDS011;37112;45.892;-123.962;2022-07-05T02:32:03;1.80;;;0.50;;
51066;SDS011;37112;45.892;-123.962;2022-07-05T02:34:37;0.70;;;0.40;;
51066;SDS011;37112;45.892;-123.962;2022-07-05T02:37:10;0.70;;;0.50;;
51066;SDS011;37112;45.892;-123.962;2022-07-05T02:39:34;1.00;;;0.40;;
51066;SDS011;37112;45.892;-123.962;2022-07-05T02:42:07;1.60;;;0.50;;
51066;SDS011;37112;45.892;-123.962;2022-07-05T02:44:40;0.90;;;0.40;;
51066;SDS011;37112;45.892;-123.962;2022-07-05T02:47:14;1.50;;;0.60;;
51066;SDS011;37112;45.892;-123.962;2022-07-05T02:49:46;0.90;;;0.50;;
51066;SDS011;37112;45.892;-123.962;2022-07-05T02:52:19;2.20;;;0.60;;
51066;SDS011;37112;45.892;-123.962;2022-07-05T02:54:52;0.90;;;0.30;;
51066;SDS011;37112;45.892;-123.962;2022-07-05T02:57:26;2.50;;;0.60;;
51066;SDS011;37112;45.892;-123.962;2022-07-05T02:59:54;1.30;;;0.50;;
51066;SDS011;37112;45.892;-123.962;2022-07-05T03:02:28;0.40;;;0.40;;
51066;SDS011;37112;45.892;-123.962;2022-07-05T03:05:04;1.40;;;0.90;;
51066;SDS011;37112;45.892;-123.962;2022-07-05T03:07:46;0.90;;;0.60;;
51066;SDS011;37112;45.892;-123.962;2022-07-05T03:10:20;0.60;;;0.60;;
51066;SDS011;37112;45.892;-123.962;2022-07-05T03:12:54;0.70;;;0.60;;
51066;SDS011;37112;45.892;-123.962;2022-07-05T03:15:27;1.60;;;0.70;;
51066;SDS011;37112;45.892;-123.962;2022-07-05T03:18:00;1.40;;;0.60;;
51066;SDS011;37112;45.892;-123.962;2022-07-05T03:20:35;1.90;;;0.70;;
51066;SDS011;37112;45.892;-123.962;2022-07-05T03:23:08;3.60;;;0.60;;
51066;SDS011;37112;45.892;-123.962;2022-07-05T03:25:41;0.90;;;0.50;;
51066;SDS011;37112;45.892;-123.962;2022-07-05T03:28:15;3.40;;;0.60;;
51066;SDS011;37112;45.892;-123.962;2022-07-05T03:30:48;1.30;;;0.60;;
51066;SDS011;37112;45.892;-123.962;2022-07-05T03:33:22;1.60;;;0.70;;
51066;SDS011;37112;45.892;-123.962;2022-07-05T03:35:55;2.20;;;0.50;;
51066;SDS011;37112;45.892;-123.962;2022-07-05T03:38:28;2.10;;;0.80;;
51066;SDS011;37112;45.892;-123.962;2022-07-05T03:41:04;2.50;;;0.70;;
51066;SDS011;37112;45.892;-123.962;2022-07-05T03:43:37;2.20;;;1.00;;
51066;SDS011;37112;45.892;-123.962;2022-07-05T03:46:11;1.50;;;1.20;;
51066;SDS011;37112;45.892;-123.962;2022-07-05T03:48:44;1.30;;;0.70;;
51066;SDS011;37112;45.892;-123.962;2022-07-05T03:51:17;1.10;;;0.70;;
51066;SDS011;37112;45.892;-123.962;2022-07-05T03:53:51;1.80;;;0.90;;
51066;SDS011;37112;45.892;-123.962;2022-07-05T03:56:24;2.50;;;1.00;;
51066;SDS011;37112;45.892;-123.962;2022-07-05T03:58:58;2.20;;;0.60;;
51066;SDS011;37112;45.892;-123.962;2022-07-05T04:01:31;1.00;;;0.80;;
51066;SDS011;37112;45.892;-123.962;2022-07-05T04:04:05;2.40;;;0.70;;
51066;SDS011;37112;45.892;-123.962;2022-07-05T04:06:36;2.60;;;1.30;;
51066;SDS011;37112;45.892;-123.962;2022-07-05T04:09:09;6.70;;;1.00;;
51066;SDS011;37112;45.892;-123.962;2022-07-05T04:11:42;1.70;;;0.70;;
51066;SDS011;37112;45.892;-123.962;2022-07-05T04:14:15;1.50;;;0.70;;
51066;SDS011;37112;45.892;-123.962;2022-07-05T04:16:48;2.00;;;1.10;;
51066;SDS011;37112;45.892;-123.962;2022-07-05T04:19:21;5.70;;;1.10;;
51066;SDS011;37112;45.892;-123.962;2022-07-05T04:21:48;2.30;;;1.00;;
51066;SDS011;37112;45.892;-123.962;2022-07-05T04:24:21;2.80;;;1.50;;
51066;SDS011;37112;45.892;-123.962;2022-07-05T04:27:12;1.90;;;0.80;;
51066;SDS011;37112;45.892;-123.962;2022-07-05T04:29:45;9.40;;;3.80;;
51066;SDS011;37112;45.892;-123.962;2022-07-05T04:32:18;3.70;;;1.70;;
51066;SDS011;37112;45.892;-123.962;2022-07-05T04:34:52;6.30;;;2.30;;
51066;SDS011;37112;45.892;-123.962;2022-07-05T04:37:32;5.70;;;2.10;;
51066;SDS011;37112;45.892;-123.962;2022-07-05T04:40:08;2.80;;;1.40;;
51066;SDS011;37112;45.892;-123.962;2022-07-05T04:42:43;2.80;;;1.00;;
51066;SDS011;37112;45.892;-123.962;2022-07-05T04:45:17;2.70;;;1.50;;
51066;SDS011;37112;45.892;-123.962;2022-07-05T04:47:50;3.80;;;1.20;;
51066;SDS011;37112;45.892;-123.962;2022-07-05T04:50:30;4.40;;;1.70;;
51066;SDS011;37112;45.892;-123.962;2022-07-05T04:53:03;3.10;;;1.30;;
51066;SDS011;37112;45.892;-123.962;2022-07-05T04:55:38;5.10;;;1.40;;
51066;SDS011;37112;45.892;-123.962;2022-07-05T04:58:11;3.50;;;1.20;;
51066;SDS011;37112;45.892;-123.962;2022-07-05T05:00:45;3.70;;;1.70;;
51066;SDS011;37112;45.892;-123.962;2022-07-05T05:03:17;3.10;;;1.30;;
51066;SDS011;37112;45.892;-123.962;2022-07-05T05:05:51;4.50;;;1.40;;
51066;SDS011;37112;45.892;-123.962;2022-07-05T05:08:24;2.50;;;1.40;;
51066;SDS011;37112;45.892;-123.962;2022-07-05T05:10:57;5.60;;;2.80;;
51066;SDS011;37112;45.892;-123.962;2022-07-05T05:13:30;8.30;;;3.70;;
51066;SDS011;37112;45.892;-123.962;2022-07-05T05:16:04;5.00;;;3.70;;
51066;SDS011;37112;45.892;-123.962;2022-07-05T05:18:38;6.20;;;5.00;;
51066;SDS011;37112;45.892;-123.962;2022-07-05T05:21:11;14.40;;;10.50;;
51066;SDS011;37112;45.892;-123.962;2022-07-05T05:23:45;20.80;;;16.20;;
51066;SDS011;37112;45.892;-123.962;2022-07-05T05:26:19;16.10;;;11.70;;
51066;SDS011;37112;45.892;-123.962;2022-07-05T05:28:53;8.90;;;6.40;;
51066;SDS011;37112;45.892;-123.962;2022-07-05T05:31:27;6.60;;;5.20;;
51066;SDS011;37112;45.892;-123.962;2022-07-05T05:34:00;7.20;;;5.60;;
51066;SDS011;37112;45.892;-123.962;2022-07-05T05:36:34;13.90;;;10.00;;
51066;SDS011;37112;45.892;-123.962;2022-07-05T05:39:07;14.30;;;12.30;;
51066;SDS011;37112;45.892;-123.962;2022-07-05T05:41:41;13.50;;;11.30;;
51066;SDS011;37112;45.892;-123.962;2022-07-05T05:44:14;12.20;;;8.00;;
51066;SDS011;37112;45.892;-123.962;2022-07-05T05:46:47;11.00;;;8.10;;
51066;SDS011;37112;45.892;-123.962;2022-07-05T05:49:20;9.90;;;7.10;;
51066;SDS011;37112;45.892;-123.962;2022-07-05T05:51:54;10.40;;;5.40;;
51066;SDS011;37112;45.892;-123.962;2022-07-05T05:54:27;12.40;;;7.00;;
51066;SDS011;37112;45.892;-123.962;2022-07-05T05:57:00;11.90;;;7.50;;
51066;SDS011;37112;45.892;-123.962;2022-07-05T05:59:34;13.60;;;7.80;;
51066;SDS011;37112;45.892;-123.962;2022-07-05T06:02:08;22.50;;;13.50;;
51066;SDS011;37112;45.892;-123.962;2022-07-05T06:04:41;25.50;;;15.80;;
51066;SDS011;37112;45.892;-123.962;2022-07-05T06:07:15;44.60;;;31.70;;
51066;SDS011;37112;45.892;-123.962;2022-07-05T06:09:48;44.20;;;27.70;;
51066;SDS011;37112;45.892;-123.962;2022-07-05T06:12:21;16.50;;;9.30;;
51066;SDS011;37112;45.892;-123.962;2022-07-05T06:14:56;8.90;;;7.30;;
51066;SDS011;37112;45.892;-123.962;2022-07-05T06:17:29;12.10;;;8.20;;
51066;SDS011;37112;45.892;-123.962;2022-07-05T06:20:10;13.30;;;9.50;;
51066;SDS011;37112;45.892;-123.962;2022-07-05T06:22:45;15.40;;;7.80;;
51066;SDS011;37112;45.892;-123.962;2022-07-05T06:25:20;13.50;;;6.90;;
51066;SDS011;37112;45.892;-123.962;2022-07-05T06:27:53;8.40;;;5.00;;
51066;SDS011;37112;45.892;-123.962;2022-07-05T06:30:29;6.10;;;4.20;;
51066;SDS011;37112;45.892;-123.962;2022-07-05T06:33:03;6.70;;;4.00;;
51066;SDS011;37112;45.892;-123.962;2022-07-05T06:35:37;5.80;;;4.30;;
51066;SDS011;37112;45.892;-123.962;2022-07-05T06:38:10;5.30;;;3.90;;
51066;SDS011;37112;45.892;-123.962;2022-07-05T06:40:44;6.50;;;3.60;;
51066;SDS011;37112;45.892;-123.962;2022-07-05T06:43:17;5.40;;;4.10;;
51066;SDS011;37112;45.892;-123.962;2022-07-05T06:45:53;10.00;;;5.00;;
51066;SDS011;37112;45.892;-123.962;2022-07-05T06:48:27;9.80;;;6.00;;
51066;SDS011;37112;45.892;-123.962;2022-07-05T06:51:00;13.00;;;7.40;;
51066;SDS011;37112;45.892;-123.962;2022-07-05T06:53:34;16.60;;;11.20;;
51066;SDS011;37112;45.892;-123.962;2022-07-05T06:56:07;13.00;;;9.10;;
51066;SDS011;37112;45.892;-123.962;2022-07-05T06:58:41;15.40;;;9.30;;
51066;SDS011;37112;45.892;-123.962;2022-07-05T07:01:34;12.70;;;9.20;;
51066;SDS011;37112;45.892;-123.962;2022-07-05T07:04:07;12.70;;;8.70;;
51066;SDS011;37112;45.892;-123.962;2022-07-05T07:06:45;17.80;;;10.40;;
51066;SDS011;37112;45.892;-123.962;2022-07-05T07:09:19;18.30;;;12.70;;
51066;SDS011;37112;45.892;-123.962;2022-07-05T07:11:52;20.80;;;14.30;;
51066;SDS011;37112;45.892;-123.962;2022-07-05T07:14:26;21.80;;;15.10;;
51066;SDS011;37112;45.892;-123.962;2022-07-05T07:16:59;31.40;;;19.10;;
51066;SDS011;37112;45.892;-123.962;2022-07-05T07:19:32;30.30;;;18.40;;
51066;SDS011;37112;45.892;-123.962;2022-07-05T07:22:06;26.40;;;16.40;;
51066;SDS011;37112;45.892;-123.962;2022-07-05T07:24:40;18.40;;;13.30;;
51066;SDS011;37112;45.892;-123.962;2022-07-05T07:27:14;20.50;;;13.50;;
51066;SDS011;37112;45.892;-123.962;2022-07-05T07:29:47;16.20;;;11.30;;
51066;SDS011;37112;45.892;-123.962;2022-07-05T07:32:20;15.50;;;10.40;;
51066;SDS011;37112;45.892;-123.962;2022-07-05T07:34:54;13.80;;;9.40;;
51066;SDS011;37112;45.892;-123.962;2022-07-05T07:37:27;12.20;;;9.10;;
51066;SDS011;37112;45.892;-123.962;2022-07-05T07:40:02;13.20;;;8.80;;
51066;SDS011;37112;45.892;-123.962;2022-07-05T07:42:37;13.50;;;8.70;;
51066;SDS011;37112;45.892;-123.962;2022-07-05T07:45:11;12.50;;;8.60;;
51066;SDS011;37112;45.892;-123.962;2022-07-05T07:47:44;13.10;;;8.40;;
51066;SDS011;37112;45.892;-123.962;2022-07-05T07:50:17;10.90;;;7.50;;
51066;SDS011;37112;45.892;-123.962;2022-07-05T07:52:51;11.10;;;7.10;;
51066;SDS011;37112;45.892;-123.962;2022-07-05T07:55:24;11.70;;;6.20;;
51066;SDS011;37112;45.892;-123.962;2022-07-05T07:57:58;9.90;;;6.90;;
51066;SDS011;37112;45.892;-123.962;2022-07-05T08:00:31;11.80;;;7.10;;
51066;SDS011;37112;45.892;-123.962;2022-07-05T08:03:05;9.10;;;6.50;;
51066;SDS011;37112;45.892;-123.962;2022-07-05T08:05:38;11.10;;;6.30;;
51066;SDS011;37112;45.892;-123.962;2022-07-05T08:08:11;9.70;;;6.30;;
51066;SDS011;37112;45.892;-123.962;2022-07-05T08:10:45;10.80;;;6.90;;
51066;SDS011;37112;45.892;-123.962;2022-07-05T08:13:18;10.40;;;5.70;;
51066;SDS011;37112;45.892;-123.962;2022-07-05T08:15:51;8.20;;;5.10;;
51066;SDS011;37112;45.892;-123.962;2022-07-05T08:18:24;7.60;;;5.30;;
51066;SDS011;37112;45.892;-123.962;2022-07-05T08:21:14;8.30;;;4.20;;
51066;SDS011;37112;45.892;-123.962;2022-07-05T08:24:06;5.60;;;3.60;;
51066;SDS011;37112;45.892;-123.962;2022-07-05T08:26:41;8.20;;;4.10;;
51066;SDS011;37112;45.892;-123.962;2022-07-05T08:29:14;6.10;;;3.80;;
51066;SDS011;37112;45.892;-123.962;2022-07-05T08:31:50;8.10;;;3.60;;
51066;SDS011;37112;45.892;-123.962;2022-07-05T08:40:28;8.20;;;4.40;;
51066;SDS011;37112;45.892;-123.962;2022-07-05T08:42:47;7.50;;;4.80;;
51066;SDS011;37112;45.892;-123.962;2022-07-05T08:45:02;7.40;;;4.80;;
51066;SDS011;37112;45.892;-123.962;2022-07-05T08:47:15;6.90;;;4.50;;
51066;SDS011;37112;45.892;-123.962;2022-07-05T08:49:30;7.70;;;4.80;;
51066;SDS011;37112;45.892;-123.962;2022-07-05T08:51:44;10.40;;;4.70;;
51066;SDS011;37112;45.892;-123.962;2022-07-05T08:53:58;6.00;;;4.40;;
51066;SDS011;37112;45.892;-123.962;2022-07-05T08:56:13;5.60;;;4.40;;
51066;SDS011;37112;45.892;-123.962;2022-07-05T08:58:45;5.50;;;3.90;;
51066;SDS011;37112;45.892;-123.962;2022-07-05T09:00:59;6.10;;;4.20;;
51066;SDS011;37112;45.892;-123.962;2022-07-05T09:03:13;5.60;;;4.00;;
51066;SDS011;37112;45.892;-123.962;2022-07-05T09:05:29;5.90;;;3.70;;
51066;SDS011;37112;45.892;-123.962;2022-07-05T09:07:48;6.00;;;4.30;;
51066;SDS011;37112;45.892;-123.962;2022-07-05T09:10:07;4.80;;;3.80;;
51066;SDS011;37112;45.892;-123.962;2022-07-05T09:12:21;5.70;;;4.00;;
51066;SDS011;37112;45.892;-123.962;2022-07-05T09:14:35;6.20;;;3.20;;
51066;SDS011;37112;45.892;-123.962;2022-07-05T09:16:48;4.70;;;3.50;;
51066;SDS011;37112;45.892;-123.962;2022-07-05T09:19:06;4.80;;;3.70;;
51066;SDS011;37112;45.892;-123.962;2022-07-05T09:21:21;6.60;;;3.30;;
51066;SDS011;37112;45.892;-123.962;2022-07-05T09:23:36;6.50;;;4.00;;
51066;SDS011;37112;45.892;-123.962;2022-07-05T09:25:50;6.30;;;3.70;;
51066;SDS011;37112;45.892;-123.962;2022-07-05T09:28:14;6.50;;;4.10;;
51066;SDS011;37112;45.892;-123.962;2022-07-05T09:30:32;8.30;;;4.70;;
51066;SDS011;37112;45.892;-123.962;2022-07-05T09:32:44;12.00;;;5.80;;
51066;SDS011;37112;45.892;-123.962;2022-07-05T09:34:58;8.40;;;5.40;;
51066;SDS011;37112;45.892;-123.962;2022-07-05T09:37:42;7.40;;;4.80;;
51066;SDS011;37112;45.892;-123.962;2022-07-05T09:39:55;10.10;;;5.00;;
51066;SDS011;37112;45.892;-123.962;2022-07-05T09:42:15;9.90;;;6.10;;
51066;SDS011;37112;45.892;-123.962;2022-07-05T09:44:31;5.60;;;4.10;;
51066;SDS011;37112;45.892;-123.962;2022-07-05T09:46:49;7.40;;;4.40;;
51066;SDS011;37112;45.892;-123.962;2022-07-05T09:49:26;7.30;;;4.10;;
51066;SDS011;37112;45.892;-123.962;2022-07-05T09:52:00;6.40;;;4.10;;
51066;SDS011;37112;45.892;-123.962;2022-07-05T09:54:13;8.40;;;4.60;;
51066;SDS011;37112;45.892;-123.962;2022-07-05T09:56:27;6.90;;;4.60;;
51066;SDS011;37112;45.892;-123.962;2022-07-05T09:58:40;8.10;;;4.10;;
51066;SDS011;37112;45.892;-123.962;2022-07-05T10:00:53;5.80;;;4.20;;
51066;SDS011;37112;45.892;-123.962;2022-07-05T10:03:08;5.60;;;4.20;;
51066;SDS011;37112;45.892;-123.962;2022-07-05T10:05:21;6.60;;;4.70;;
51066;SDS011;37112;45.892;-123.962;2022-07-05T10:07:35;4.70;;;3.50;;
51066;SDS011;37112;45.892;-123.962;2022-07-05T10:09:50;5.00;;;3.70;;
51066;SDS011;37112;45.892;-123.962;2022-07-05T10:12:03;9.80;;;4.10;;
51066;SDS011;37112;45.892;-123.962;2022-07-05T10:14:18;7.00;;;4.20;;
51066;SDS011;37112;45.892;-123.962;2022-07-05T10:16:31;8.40;;;4.30;;
51066;SDS011;37112;45.892;-123.962;2022-07-05T10:18:45;5.50;;;3.90;;
51066;SDS011;37112;45.892;-123.962;2022-07-05T10:21:00;5.60;;;3.70;;
51066;SDS011;37112;45.892;-123.962;2022-07-05T10:23:17;4.60;;;3.40;;
51066;SDS011;37112;45.892;-123.962;2022-07-05T10:25:30;5.50;;;2.80;;
51066;SDS011;37112;45.892;-123.962;2022-07-05T10:27:44;3.90;;;3.00;;
51066;SDS011;37112;45.892;-123.962;2022-07-05T10:30:01;3.50;;;2.30;;
51066;SDS011;37112;45.892;-123.962;2022-07-05T10:32:18;3.40;;;1.90;;
51066;SDS011;37112;45.892;-123.962;2022-07-05T10:34:32;3.30;;;2.50;;
51066;SDS011;37112;45.892;-123.962;2022-07-05T10:37:04;5.30;;;3.00;;
51066;SDS011;37112;45.892;-123.962;2022-07-05T10:39:17;3.40;;;2.20;;
51066;SDS011;37112;45.892;-123.962;2022-07-05T10:41:33;3.70;;;2.00;;
51066;SDS011;37112;45.892;-123.962;2022-07-05T10:43:48;2.90;;;1.50;;
51066;SDS011;37112;45.892;-123.962;2022-07-05T10:46:06;4.20;;;2.30;;
51066;SDS011;37112;45.892;-123.962;2022-07-05T10:48:20;3.70;;;2.00;;
51066;SDS011;37112;45.892;-123.962;2022-07-05T10:50:44;3.00;;;1.90;;
51066;SDS011;37112;45.892;-123.962;2022-07-05T10:53:04;3.90;;;1.90;;
51066;SDS011;37112;45.892;-123.962;2022-07-05T10:55:21;4.80;;;2.30;;
51066;SDS011;37112;45.892;-123.962;2022-07-05T10:57:35;2.90;;;1.90;;
51066;SDS011;37112;45.892;-123.962;2022-07-05T11:00:06;4.50;;;2.40;;
51066;SDS011;37112;45.892;-123.962;2022-07-05T11:02:21;5.50;;;2.60;;
51066;SDS011;37112;45.892;-123.962;2022-07-05T11:04:34;3.70;;;2.20;;
51066;SDS011;37112;45.892;-123.962;2022-07-05T11:06:48;7.60;;;2.80;;
51066;SDS011;37112;45.892;-123.962;2022-07-05T11:09:17;4.50;;;2.40;;
51066;SDS011;37112;45.892;-123.962;2022-07-05T11:11:31;4.20;;;2.50;;
51066;SDS011;37112;45.892;-123.962;2022-07-05T11:13:53;2.80;;;2.10;;
51066;SDS011;37112;45.892;-123.962;2022-07-05T11:16:23;4.60;;;2.20;;
51066;SDS011;37112;45.892;-123.962;2022-07-05T11:18:37;4.00;;;1.80;;
51066;SDS011;37112;45.892;-123.962;2022-07-05T11:20:51;2.90;;;2.10;;
51066;SDS011;37112;45.892;-123.962;2022-07-05T11:23:30;2.20;;;1.60;;
51066;SDS011;37112;45.892;-123.962;2022-07-05T11:25:45;3.00;;;1.80;;
51066;SDS011;37112;45.892;-123.962;2022-07-05T11:28:08;4.60;;;2.30;;
51066;SDS011;37112;45.892;-123.962;2022-07-05T11:30:26;3.50;;;1.80;;
51066;SDS011;37112;45.892;-123.962;2022-07-05T11:32:40;2.70;;;1.70;;
51066;SDS011;37112;45.892;-123.962;2022-07-05T11:34:53;4.20;;;2.00;;
51066;SDS011;37112;45.892;-123.962;2022-07-05T11:37:22;4.10;;;1.90;;
51066;SDS011;37112;45.892;-123.962;2022-07-05T11:42:47;2.00;;;1.60;;
51066;SDS011;37112;45.892;-123.962;2022-07-05T11:45:00;4.90;;;1.60;;
51066;SDS011;37112;45.892;-123.962;2022-07-05T11:47:15;2.60;;;1.60;;
51066;SDS011;37112;45.892;-123.962;2022-07-05T11:49:30;2.80;;;1.70;;
51066;SDS011;37112;45.892;-123.962;2022-07-05T11:51:44;3.60;;;1.60;;
51066;SDS011;37112;45.892;-123.962;2022-07-05T11:54:07;1.90;;;1.50;;
51066;SDS011;37112;45.892;-123.962;2022-07-05T11:56:24;2.80;;;1.60;;
51066;SDS011;37112;45.892;-123.962;2022-07-05T11:58:38;3.70;;;2.50;;
51066;SDS011;37112;45.892;-123.962;2022-07-05T12:00:55;3.70;;;2.40;;
51066;SDS011;37112;45.892;-123.962;2022-07-05T12:03:12;2.20;;;1.50;;
51066;SDS011;37112;45.892;-123.962;2022-07-05T12:05:28;4.70;;;1.90;;
51066;SDS011;37112;45.892;-123.962;2022-07-05T12:10:01;2.60;;;1.80;;
51066;SDS011;37112;45.892;-123.962;2022-07-05T12:12:53;2.70;;;1.60;;
51066;SDS011;37112;45.892;-123.962;2022-07-05T12:15:14;2.70;;;1.90;;
51066;SDS011;37112;45.892;-123.962;2022-07-05T12:17:28;4.80;;;1.60;;
51066;SDS011;37112;45.892;-123.962;2022-07-05T12:19:43;4.80;;;1.90;;
51066;SDS011;37112;45.892;-123.962;2022-07-05T12:21:57;3.90;;;1.50;;
51066;SDS011;37112;45.892;-123.962;2022-07-05T12:24:10;2.20;;;1.60;;
51066;SDS011;37112;45.892;-123.962;2022-07-05T12:26:27;3.40;;;1.80;;
51066;SDS011;37112;45.892;-123.962;2022-07-05T12:28:40;1.60;;;1.40;;
51066;SDS011;37112;45.892;-123.962;2022-07-05T12:30:54;2.90;;;1.70;;
51066;SDS011;37112;45.892;-123.962;2022-07-05T12:33:08;4.30;;;1.80;;
51066;SDS011;37112;45.892;-123.962;2022-07-05T12:35:32;3.70;;;1.90;;
51066;SDS011;37112;45.892;-123.962;2022-07-05T12:37:46;3.90;;;2.50;;
51066;SDS011;37112;45.892;-123.962;2022-07-05T12:40:07;3.40;;;1.70;;
51066;SDS011;37112;45.892;-123.962;2022-07-05T12:42:33;2.40;;;1.60;;
51066;SDS011;37112;45.892;-123.962;2022-07-05T12:44:49;3.10;;;2.00;;
51066;SDS011;37112;45.892;-123.962;2022-07-05T12:47:15;2.60;;;1.70;;
51066;SDS011;37112;45.892;-123.962;2022-07-05T12:49:28;3.20;;;1.90;;
51066;SDS011;37112;45.892;-123.962;2022-07-05T12:51:43;2.60;;;1.50;;
51066;SDS011;37112;45.892;-123.962;2022-07-05T12:53:57;2.20;;;1.90;;
51066;SDS011;37112;45.892;-123.962;2022-07-05T12:56:26;3.60;;;1.90;;
51066;SDS011;37112;45.892;-123.962;2022-07-05T12:59:16;3.90;;;1.80;;
51066;SDS011;37112;45.892;-123.962;2022-07-05T13:01:29;3.90;;;2.30;;
51066;SDS011;37112;45.892;-123.962;2022-07-05T13:03:57;3.90;;;1.90;;
51066;SDS011;37112;45.892;-123.962;2022-07-05T13:06:11;4.00;;;2.10;;
51066;SDS011;37112;45.892;-123.962;2022-07-05T13:08:29;2.90;;;1.70;;
51066;SDS011;37112;45.892;-123.962;2022-07-05T13:10:47;3.10;;;2.10;;
51066;SDS011;37112;45.892;-123.962;2022-07-05T13:13:00;3.00;;;1.90;;
51066;SDS011;37112;45.892;-123.962;2022-07-05T13:15:14;2.80;;;1.70;;
51066;SDS011;37112;45.892;-123.962;2022-07-05T13:17:28;5.50;;;1.80;;
51066;SDS011;37112;45.892;-123.962;2022-07-05T13:19:42;3.50;;;2.20;;
51066;SDS011;37112;45.892;-123.962;2022-07-05T13:21:56;3.10;;;1.50;;
51066;SDS011;37112;45.892;-123.962;2022-07-05T13:24:10;2.80;;;1.50;;
51066;SDS011;37112;45.892;-123.962;2022-07-05T13:26:23;2.60;;;1.60;;
51066;SDS011;37112;45.892;-123.962;2022-07-05T13:28:37;2.10;;;1.40;;
51066;SDS011;37112;45.892;-123.962;2022-07-05T13:30:50;3.40;;;1.30;;
51066;SDS011;37112;45.892;-123.962;2022-07-05T13:33:03;3.30;;;1.80;;
51066;SDS011;37112;45.892;-123.962;2022-07-05T13:35:16;2.40;;;1.50;;
51066;SDS011;37112;45.892;-123.962;2022-07-05T13:37:30;1.80;;;1.40;;
51066;SDS011;37112;45.892;-123.962;2022-07-05T13:39:43;3.40;;;1.60;;
51066;SDS011;37112;45.892;-123.962;2022-07-05T13:41:57;4.30;;;1.70;;
51066;SDS011;37112;45.892;-123.962;2022-07-05T13:44:13;3.40;;;1.70;;
51066;SDS011;37112;45.892;-123.962;2022-07-05T13:46:26;3.60;;;1.70;;
51066;SDS011;37112;45.892;-123.962;2022-07-05T13:48:40;5.60;;;1.70;;
51066;SDS011;37112;45.892;-123.962;2022-07-05T13:50:53;2.50;;;1.70;;
51066;SDS011;37112;45.892;-123.962;2022-07-05T13:53:07;4.40;;;2.10;;
51066;SDS011;37112;45.892;-123.962;2022-07-05T13:55:20;3.80;;;1.80;;
51066;SDS011;37112;45.892;-123.962;2022-07-05T13:57:34;3.40;;;1.60;;
51066;SDS011;37112;45.892;-123.962;2022-07-05T13:59:47;3.90;;;1.80;;
51066;SDS011;37112;45.892;-123.962;2022-07-05T14:02:00;4.50;;;2.00;;
51066;SDS011;37112;45.892;-123.962;2022-07-05T14:04:14;2.20;;;1.70;;
51066;SDS011;37112;45.892;-123.962;2022-07-05T14:06:28;3.30;;;1.60;;
51066;SDS011;37112;45.892;-123.962;2022-07-05T14:08:42;3.60;;;2.00;;
51066;SDS011;37112;45.892;-123.962;2022-07-05T14:10:56;6.80;;;2.00;;
51066;SDS011;37112;45.892;-123.962;2022-07-05T14:13:10;3.70;;;2.30;;
51066;SDS011;37112;45.892;-123.962;2022-07-05T14:15:24;3.20;;;2.30;;